createdAt,value
2018-04-02T00:00:36.493Z,79.40
2018-04-02T00:03:04.104Z,79.10
2018-04-02T00:05:31.714Z,78.70
2018-04-02T00:07:59.292Z,78.40
2018-04-02T00:10:27.703Z,78.10
2018-04-02T00:12:55.254Z,78.00
2018-04-02T00:15:22.822Z,78.90
2018-04-02T00:17:50.400Z,78.30
2018-04-02T00:20:18.049Z,78.40
2018-04-02T00:22:45.632Z,78.20
2018-04-02T00:25:13.275Z,78.70
2018-04-02T00:27:40.895Z,78.70
2018-04-02T00:30:08.490Z,78.60
2018-04-02T00:32:36.095Z,79.40
2018-04-02T00:35:03.683Z,78.40
2018-04-02T00:37:32.068Z,79.00
2018-04-02T00:40:00.431Z,79.30
2018-04-02T00:42:28.099Z,79.30
2018-04-02T00:44:55.617Z,79.70
2018-04-02T00:47:23.187Z,80.40
2018-04-02T00:49:50.730Z,81.30
2018-04-02T00:52:18.319Z,81.20
2018-04-02T00:54:45.901Z,80.90
2018-04-02T00:57:14.267Z,81.40
2018-04-02T00:59:41.818Z,81.30
2018-04-02T01:02:09.386Z,80.90
2018-04-02T01:04:36.934Z,80.50
2018-04-02T01:07:04.518Z,80.10
2018-04-02T01:09:32.058Z,79.60
2018-04-02T01:11:59.634Z,79.10
2018-04-02T01:14:27.177Z,78.90
2018-04-02T01:16:54.718Z,78.90
2018-04-02T01:19:22.288Z,79.20
2018-04-02T01:21:50.775Z,79.60
2018-04-02T01:24:18.446Z,79.30
2018-04-02T01:26:46.027Z,79.10
2018-04-02T01:29:14.410Z,80.10
2018-04-02T01:31:42.769Z,79.90
2018-04-02T01:34:10.356Z,79.90
2018-04-02T01:36:37.894Z,79.80
2018-04-02T01:39:05.509Z,79.70
2018-04-02T01:41:33.096Z,80.10
2018-04-02T01:44:00.752Z,80.60
2018-04-02T01:46:28.338Z,80.40
2018-04-02T01:48:55.931Z,80.20
2018-04-02T01:51:23.520Z,80.20
2018-04-02T01:53:51.164Z,80.10
2018-04-02T01:56:18.744Z,80.00
2018-04-02T01:58:47.158Z,80.20
2018-04-02T02:01:14.760Z,80.20
2018-04-02T02:03:42.346Z,79.90
2018-04-02T02:06:09.886Z,79.50
2018-04-02T02:08:37.427Z,79.40
2018-04-02T02:11:05.832Z,79.20
2018-04-02T02:13:33.434Z,79.20
2018-04-02T02:16:01.072Z,79.20
2018-04-02T02:18:28.658Z,79.40
2018-04-02T02:20:56.280Z,80.00
2018-04-02T02:23:23.880Z,80.30
2018-04-02T02:25:51.538Z,80.30
2018-04-02T02:28:19.177Z,81.10
2018-04-02T02:30:46.832Z,80.20
2018-04-02T02:33:14.443Z,80.10
2018-04-02T02:35:42.826Z,79.70
2018-04-02T02:38:10.512Z,79.70
2018-04-02T02:40:38.130Z,79.70
2018-04-02T02:43:05.714Z,80.10
2018-04-02T02:45:34.158Z,79.70
2018-04-02T02:48:01.732Z,79.70
2018-04-02T02:50:29.350Z,79.30
2018-04-02T02:52:56.963Z,79.10
2018-04-02T02:55:24.595Z,79.10
2018-04-02T02:57:52.201Z,79.00
2018-04-02T03:00:19.838Z,80.00
2018-04-02T03:02:47.472Z,79.30
2018-04-02T03:05:15.063Z,79.30
2018-04-02T03:07:42.683Z,79.60
2018-04-02T03:10:10.307Z,79.70
2018-04-02T03:12:37.941Z,79.30
2018-04-02T03:15:05.534Z,80.90
2018-04-02T03:17:33.143Z,81.60
2018-04-02T03:20:00.731Z,81.30
2018-04-02T03:22:28.395Z,81.10
2018-04-02T03:24:55.990Z,81.30
2018-04-02T03:27:23.561Z,81.90
2018-04-02T03:29:51.109Z,82.20
2018-04-02T03:32:19.443Z,82.00
2018-04-02T03:34:46.985Z,82.00
2018-04-02T03:37:14.553Z,81.90
2018-04-02T03:39:42.092Z,81.60
2018-04-02T03:42:09.623Z,81.00
2018-04-02T03:44:37.970Z,81.00
2018-04-02T03:47:05.517Z,80.90
2018-04-02T03:49:33.082Z,81.00
2018-04-02T03:52:00.622Z,80.90
2018-04-02T03:54:28.194Z,81.10
2018-04-02T03:56:55.739Z,80.70
2018-04-02T03:59:23.318Z,80.50
2018-04-02T04:01:50.867Z,80.60
2018-04-02T04:04:18.436Z,80.50
2018-04-02T04:06:45.987Z,80.30
2018-04-02T04:09:13.549Z,80.80
2018-04-02T04:11:41.082Z,81.60
2018-04-02T04:14:08.663Z,81.60
2018-04-02T04:16:36.978Z,81.70
2018-04-02T04:19:04.546Z,81.70
2018-04-02T04:21:32.856Z,81.60
2018-04-02T04:24:00.440Z,81.40
2018-04-02T04:26:27.994Z,81.40
2018-04-02T04:28:55.533Z,81.90
2018-04-02T04:31:23.131Z,82.30
2018-04-02T04:33:50.768Z,82.40
2018-04-02T04:36:18.421Z,82.70
2018-04-02T04:38:46.002Z,82.80
2018-04-02T04:41:13.577Z,82.40
2018-04-02T04:43:41.136Z,82.40
2018-04-02T04:46:08.714Z,82.30
2018-04-02T04:48:36.267Z,82.30
2018-04-02T04:51:03.859Z,83.00
2018-04-02T04:53:31.435Z,82.20
2018-04-02T04:55:59.009Z,82.20
2018-04-02T04:58:26.571Z,82.10
2018-04-02T05:00:54.139Z,81.30
2018-04-02T05:03:21.680Z,81.30
2018-04-02T05:05:49.242Z,81.30
2018-04-02T05:08:16.797Z,81.40
2018-04-02T05:10:44.361Z,81.30
2018-04-02T05:13:11.924Z,81.50
2018-04-02T05:15:39.577Z,81.80
2018-04-02T05:18:07.117Z,81.60
2018-04-02T05:20:35.454Z,81.40
2018-04-02T05:23:03.056Z,81.40
2018-04-02T05:25:30.616Z,81.40
2018-04-02T05:27:58.935Z,81.60
2018-04-02T05:30:26.520Z,81.60
2018-04-02T05:32:54.076Z,81.60
2018-04-02T05:35:21.630Z,81.50
2018-04-02T05:37:49.202Z,81.60
2018-04-02T05:40:16.744Z,81.90
2018-04-02T05:42:44.302Z,81.80
2018-04-02T05:45:11.872Z,81.70
2018-04-02T05:47:39.453Z,81.80
2018-04-02T05:50:06.989Z,81.80
2018-04-02T05:52:34.550Z,81.80
2018-04-02T05:55:02.118Z,81.80
2018-04-02T05:57:29.686Z,81.60
2018-04-02T05:59:57.222Z,81.90
2018-04-02T06:02:25.559Z,81.20
2018-04-02T06:04:53.870Z,81.10
2018-04-02T06:07:21.474Z,81.10
2018-04-02T06:09:49.042Z,81.10
2018-04-02T06:12:17.417Z,81.10
2018-04-02T06:14:45.020Z,81.10
2018-04-02T06:17:12.651Z,81.10
2018-04-02T06:19:41.010Z,81.00
2018-04-02T06:22:08.667Z,80.90
2018-04-02T06:24:36.266Z,80.60
2018-04-02T06:27:03.889Z,80.30
2018-04-02T06:29:31.470Z,80.80
2018-04-02T06:31:59.908Z,80.70
2018-04-02T06:34:27.555Z,80.70
2018-04-02T06:36:55.225Z,81.10
2018-04-02T06:39:22.799Z,80.60
2018-04-02T06:41:50.434Z,81.00
2018-04-02T06:44:18.043Z,81.30
2018-04-02T06:46:45.659Z,81.70
2018-04-02T06:49:13.268Z,81.70
2018-04-02T06:51:40.888Z,81.80
2018-04-02T06:54:09.298Z,81.00
2018-04-02T06:56:36.888Z,81.00
2018-04-02T06:59:05.269Z,81.00
2018-04-02T07:01:33.634Z,81.50
2018-04-02T07:04:01.267Z,81.50
2018-04-02T07:06:29.735Z,81.20
2018-04-02T07:08:58.131Z,79.60
2018-04-02T07:11:25.726Z,80.20
2018-04-02T07:13:54.095Z,79.20
2018-04-02T07:16:21.706Z,79.10
2018-04-02T07:18:49.315Z,79.00
2018-04-02T07:21:17.690Z,79.00
2018-04-02T07:23:45.346Z,78.90
2018-04-02T07:26:12.963Z,78.50
2018-04-02T07:28:40.545Z,80.40
2018-04-02T07:31:08.134Z,80.60
2018-04-02T07:33:35.732Z,80.70
2018-04-02T07:36:03.344Z,80.00
2018-04-02T07:38:30.946Z,80.20
2018-04-02T07:40:58.563Z,79.40
2018-04-02T07:43:26.191Z,80.30
2018-04-02T07:45:53.790Z,80.20
2018-04-02T07:48:21.413Z,79.20
2018-04-02T07:50:49.035Z,78.50
2018-04-02T07:53:16.638Z,79.50
2018-04-02T07:55:44.243Z,79.80
2018-04-02T07:58:11.864Z,79.10
2018-04-02T08:00:39.457Z,79.00
2018-04-02T08:03:07.065Z,78.20
2018-04-02T08:05:34.723Z,77.50
2018-04-02T08:08:02.350Z,77.00
2018-04-02T08:10:29.920Z,76.50
2018-04-02T08:12:57.527Z,76.40
2018-04-02T08:15:25.131Z,75.80
2018-04-02T08:17:52.856Z,75.10
2018-04-02T08:20:20.408Z,75.00
2018-04-02T08:22:47.983Z,72.40
2018-04-02T08:25:15.543Z,72.20
2018-04-02T08:27:43.117Z,71.60
2018-04-02T08:30:10.646Z,69.60
2018-04-02T08:32:38.214Z,69.80
2018-04-02T08:35:05.810Z,69.70
2018-04-02T08:37:33.369Z,68.70
2018-04-02T08:40:00.912Z,68.80
2018-04-02T08:42:28.479Z,67.70
2018-04-02T08:44:56.010Z,66.90
2018-04-02T08:47:23.574Z,65.10
2018-04-02T08:49:51.111Z,64.90
2018-04-02T08:52:18.727Z,61.70
2018-04-02T08:54:46.261Z,60.60
2018-04-02T08:57:13.798Z,60.00
2018-04-02T08:59:41.365Z,59.10
2018-04-02T09:02:08.906Z,60.10
2018-04-02T09:04:36.478Z,58.50
2018-04-02T09:07:04.054Z,58.00
2018-04-02T09:09:31.626Z,57.50
2018-04-02T09:11:59.166Z,56.30
2018-04-02T09:14:26.760Z,57.30
2018-04-02T09:16:54.314Z,57.50
2018-04-02T09:19:21.896Z,55.80
2018-04-02T09:21:49.510Z,55.50
2018-04-02T09:24:17.110Z,55.60
2018-04-02T09:26:44.702Z,54.90
2018-04-02T09:29:12.422Z,55.50
2018-04-02T09:31:39.998Z,55.20
2018-04-02T09:34:07.604Z,55.60
2018-04-02T09:36:35.150Z,55.60
2018-04-02T09:39:04.407Z,55.10
2018-04-02T09:41:32.026Z,55.10
2018-04-02T09:43:59.647Z,53.60
2018-04-02T09:46:27.238Z,53.30
2018-04-02T09:48:54.880Z,53.60
2018-04-02T09:51:23.304Z,49.80
2018-04-02T09:53:50.918Z,49.20
2018-04-02T09:56:18.539Z,48.50
2018-04-02T09:58:46.124Z,49.80
2018-04-02T10:01:13.750Z,48.70
2018-04-02T10:03:56.266Z,47.10
2018-04-02T10:06:23.875Z,47.30
2018-04-02T10:08:51.463Z,47.60
2018-04-02T10:11:19.078Z,47.90
2018-04-02T10:13:46.649Z,48.00
2018-04-02T10:16:14.214Z,49.30
2018-04-02T10:18:41.746Z,47.30
2018-04-02T10:21:09.333Z,46.70
2018-04-02T10:23:36.872Z,47.20
2018-04-02T10:26:04.443Z,46.00
2018-04-02T10:28:31.982Z,42.80
2018-04-02T10:30:59.521Z,44.40
2018-04-02T10:33:27.093Z,45.50
2018-04-02T10:35:54.634Z,45.00
2018-04-02T10:38:22.218Z,45.90
2018-04-02T10:40:49.755Z,46.10
2018-04-02T10:43:17.340Z,44.40
2018-04-02T10:45:45.678Z,45.00
2018-04-02T10:48:13.244Z,45.10
2018-04-02T10:50:40.786Z,44.70
2018-04-02T10:53:09.107Z,44.30
2018-04-02T10:55:36.640Z,44.30
2018-04-02T10:58:04.223Z,45.20
2018-04-02T11:00:31.759Z,44.30
2018-04-02T11:02:59.329Z,44.50
2018-04-02T11:05:26.866Z,44.30
2018-04-02T11:07:55.214Z,50.90
2018-04-02T11:10:22.747Z,50.90
2018-04-02T11:12:50.342Z,50.60
2018-04-02T11:15:17.887Z,43.80
2018-04-02T11:17:45.427Z,43.80
2018-04-02T11:20:13.007Z,44.80
2018-04-02T11:22:40.546Z,43.50
2018-04-02T11:25:08.107Z,44.70
2018-04-02T11:27:35.653Z,44.30
2018-04-02T11:30:03.230Z,44.50
2018-04-02T11:32:30.784Z,44.60
2018-04-02T11:34:58.350Z,45.20
2018-04-02T11:37:25.904Z,45.00
2018-04-02T11:39:53.474Z,45.00
2018-04-02T11:42:21.006Z,45.00
2018-04-02T11:44:48.596Z,45.80
2018-04-02T11:47:16.190Z,44.80
2018-04-02T11:49:44.637Z,44.70
2018-04-02T11:52:12.270Z,44.70
2018-04-02T11:54:39.922Z,45.90
2018-04-02T11:57:07.555Z,44.20
2018-04-02T11:59:35.154Z,44.20
2018-04-02T12:02:02.793Z,42.60
2018-04-02T12:04:31.130Z,43.00
2018-04-02T12:06:58.779Z,43.00
2018-04-02T12:09:26.373Z,43.10
2018-04-02T12:11:54.023Z,43.30
2018-04-02T12:14:21.660Z,42.90
2018-04-02T12:16:49.269Z,43.10
2018-04-02T12:19:17.628Z,44.10
2018-04-02T12:21:45.273Z,44.00
2018-04-02T12:24:12.870Z,41.80
2018-04-02T12:26:40.491Z,43.00
2018-04-02T12:29:08.075Z,43.20
2018-04-02T12:31:35.698Z,42.40
2018-04-02T12:34:03.366Z,43.30
2018-04-02T12:36:30.992Z,41.80
2018-04-02T12:38:59.384Z,43.80
2018-04-02T12:41:26.991Z,43.80
2018-04-02T12:43:54.575Z,43.10
2018-04-02T12:46:22.966Z,44.50
2018-04-02T12:48:51.390Z,45.00
2018-04-02T12:51:19.004Z,45.00
2018-04-02T12:53:47.384Z,46.40
2018-04-02T12:56:15.736Z,46.20
2018-04-02T12:58:43.366Z,46.20
2018-04-02T13:01:10.974Z,45.20
2018-04-02T13:03:39.421Z,45.20
2018-04-02T13:06:07.014Z,45.10
2018-04-02T13:08:34.627Z,44.60
2018-04-02T13:11:02.247Z,44.30
2018-04-02T13:13:30.670Z,45.40
2018-04-02T13:15:58.274Z,45.40
2018-04-02T13:18:25.834Z,45.00
2018-04-02T13:20:53.361Z,44.60
2018-04-02T13:23:20.946Z,46.50
2018-04-02T13:25:48.488Z,45.30
2018-04-02T13:28:16.023Z,45.40
2018-04-02T13:30:43.616Z,45.50
2018-04-02T13:33:11.158Z,46.20
2018-04-02T13:35:38.722Z,44.20
2018-04-02T13:38:06.266Z,43.40
2018-04-02T13:40:33.843Z,44.60
2018-04-02T13:43:01.387Z,43.70
2018-04-02T13:45:28.955Z,44.00
2018-04-02T13:47:56.490Z,42.80
2018-04-02T13:50:24.058Z,42.70
2018-04-02T13:52:51.596Z,44.10
2018-04-02T13:55:19.943Z,43.70
2018-04-02T13:57:47.513Z,43.70
2018-04-02T14:00:15.088Z,43.10
2018-04-02T14:02:43.402Z,42.00
2018-04-02T14:05:10.996Z,42.00
2018-04-02T14:07:38.538Z,40.50
2018-04-02T14:10:06.096Z,41.60
2018-04-02T14:12:33.683Z,41.30
2018-04-02T14:15:01.243Z,42.00
2018-04-02T14:17:28.842Z,41.30
2018-04-02T14:19:56.380Z,41.30
2018-04-02T14:22:23.959Z,42.00
2018-04-02T14:24:51.495Z,42.40
2018-04-02T14:27:19.062Z,42.30
2018-04-02T14:29:46.660Z,41.80
2018-04-02T14:32:14.366Z,42.20
2018-04-02T14:34:41.971Z,42.00
2018-04-02T14:37:09.606Z,42.30
2018-04-02T14:39:38.003Z,42.20
2018-04-02T14:42:06.338Z,42.50
2018-04-02T14:44:33.926Z,42.50
2018-04-02T14:47:01.534Z,42.60
2018-04-02T14:49:29.086Z,42.20
2018-04-02T14:51:56.689Z,42.20
2018-04-02T14:54:24.248Z,42.30
2018-04-02T14:56:51.786Z,42.40
2018-04-02T14:59:19.357Z,41.60
2018-04-02T15:01:46.896Z,42.10
2018-04-02T15:04:14.508Z,41.30
2018-04-02T15:06:42.042Z,41.30
2018-04-02T15:09:09.606Z,40.80
2018-04-02T15:11:37.143Z,41.20
2018-04-02T15:14:04.706Z,40.40
2018-04-02T15:16:32.245Z,40.50
2018-04-02T15:18:59.819Z,40.10
2018-04-02T15:21:27.355Z,40.00
2018-04-02T15:23:54.926Z,40.20
2018-04-02T15:26:22.462Z,39.90
2018-04-02T15:28:50.790Z,40.50
2018-04-02T15:31:18.330Z,41.10
2018-04-02T15:33:45.905Z,40.90
2018-04-02T15:36:13.462Z,41.70
2018-04-02T15:38:41.060Z,42.20
2018-04-02T15:41:08.610Z,42.80
2018-04-02T15:43:36.154Z,42.30
2018-04-02T15:46:03.722Z,43.10
2018-04-02T15:48:31.257Z,42.20
2018-04-02T15:50:58.875Z,43.20
2018-04-02T15:53:26.380Z,42.70
2018-04-02T15:55:53.942Z,42.90
2018-04-02T15:58:22.266Z,41.50
2018-04-02T16:00:50.646Z,42.20
2018-04-02T16:03:18.952Z,43.00
2018-04-02T16:05:46.532Z,43.00
2018-04-02T16:08:14.069Z,42.50
2018-04-02T16:10:41.638Z,43.90
2018-04-02T16:13:09.184Z,43.40
2018-04-02T16:15:36.763Z,43.50
2018-04-02T16:18:04.311Z,43.90
2018-04-02T16:20:31.879Z,43.60
2018-04-02T16:22:59.426Z,43.70
2018-04-02T16:25:27.022Z,43.70
2018-04-02T16:27:55.325Z,43.80
2018-04-02T16:30:22.906Z,43.80
2018-04-02T16:32:51.218Z,44.20
2018-04-02T16:35:18.750Z,44.20
2018-04-02T16:37:47.092Z,43.30
2018-04-02T16:40:14.648Z,43.90
2018-04-02T16:42:42.211Z,44.10
2018-04-02T16:45:09.750Z,43.70
2018-04-02T16:47:38.110Z,43.70
2018-04-02T16:50:05.689Z,43.60
2018-04-02T16:52:33.287Z,44.30
2018-04-02T16:55:00.833Z,44.30
2018-04-02T16:57:28.413Z,42.80
2018-04-02T16:59:56.733Z,43.80
2018-04-02T17:02:24.310Z,43.70
2018-04-02T17:04:52.612Z,44.10
2018-04-02T17:07:20.198Z,44.00
2018-04-02T17:09:48.537Z,43.70
2018-04-02T17:12:16.108Z,43.70
2018-04-02T17:14:43.675Z,43.50
2018-04-02T17:17:11.258Z,43.30
2018-04-02T17:19:39.613Z,44.40
2018-04-02T17:22:07.153Z,44.30
2018-04-02T17:24:34.728Z,45.20
2018-04-02T17:27:02.274Z,45.50
2018-04-02T17:29:29.841Z,44.00
2018-04-02T17:31:57.382Z,44.70
2018-04-02T17:34:24.956Z,50.00
2018-04-02T17:36:52.504Z,52.10
2018-04-02T17:39:20.154Z,45.50
2018-04-02T17:41:47.749Z,45.80
2018-04-02T17:44:15.376Z,44.90
2018-04-02T17:46:42.979Z,44.30
2018-04-02T17:49:10.630Z,45.40
2018-04-02T17:51:38.201Z,45.70
2018-04-02T17:54:05.791Z,46.00
2018-04-02T17:56:33.413Z,45.70
2018-04-02T17:59:01.050Z,47.00
2018-04-02T18:01:28.669Z,47.00
2018-04-02T18:03:56.260Z,45.50
2018-04-02T18:06:23.840Z,47.30
2018-04-02T18:08:51.386Z,47.50
2018-04-02T18:11:18.955Z,48.00
2018-04-02T18:13:46.492Z,47.30
2018-04-02T18:16:14.076Z,45.60
2018-04-02T18:18:41.616Z,47.50
2018-04-02T18:21:09.195Z,45.70
2018-04-02T18:23:36.760Z,47.90
2018-04-02T18:26:05.124Z,46.40
2018-04-02T18:28:32.665Z,46.50
2018-04-02T18:31:00.215Z,46.20
2018-04-02T18:33:28.555Z,48.00
2018-04-02T18:35:56.138Z,48.00
2018-04-02T18:38:24.489Z,47.10
2018-04-02T18:40:52.034Z,47.10
2018-04-02T18:43:19.603Z,47.10
2018-04-02T18:45:47.154Z,46.20
2018-04-02T18:48:14.714Z,48.00
2018-04-02T18:50:42.266Z,48.20
2018-04-02T18:53:09.833Z,48.10
2018-04-02T18:55:37.374Z,46.60
2018-04-02T18:58:04.947Z,47.20
2018-04-02T19:00:32.490Z,46.80
2018-04-02T19:03:00.067Z,47.70
2018-04-02T19:05:27.601Z,47.80
2018-04-02T19:07:55.150Z,49.00
2018-04-02T19:10:22.710Z,49.40
2018-04-02T19:12:51.025Z,51.40
2018-04-02T19:15:18.631Z,51.40
2018-04-02T19:17:46.173Z,51.50
2018-04-02T19:20:14.012Z,51.30
2018-04-02T19:22:41.690Z,49.70
2018-04-02T19:25:09.333Z,50.50
2018-04-02T19:27:36.936Z,51.70
2018-04-02T19:30:04.558Z,50.50
2018-04-02T19:32:32.160Z,50.00
2018-04-02T19:34:59.788Z,49.90
2018-04-02T19:37:27.377Z,49.00
2018-04-02T19:39:55.055Z,50.40
2018-04-02T19:42:23.413Z,51.10
2018-04-02T19:44:51.049Z,51.10
2018-04-02T19:47:19.435Z,54.70
2018-04-02T19:49:47.036Z,54.00
2018-04-02T19:52:15.390Z,54.40
2018-04-02T19:54:43.048Z,54.40
2018-04-02T19:57:10.699Z,55.80
2018-04-02T19:59:38.316Z,55.50
2018-04-02T20:02:05.942Z,55.70
2018-04-02T20:04:33.581Z,55.10
2018-04-02T20:07:01.234Z,55.70
2018-04-02T20:09:28.804Z,55.60
2018-04-02T20:11:56.457Z,55.50
2018-04-02T20:14:24.015Z,56.00
2018-04-02T20:16:51.687Z,56.60
2018-04-02T20:19:19.300Z,57.60
2018-04-02T20:21:47.699Z,56.60
2018-04-02T20:24:15.341Z,56.50
2018-04-02T20:26:43.819Z,56.60
2018-04-02T20:29:12.208Z,56.60
2018-04-02T20:31:40.608Z,56.80
2018-04-02T20:34:08.146Z,56.70
2018-04-02T20:36:36.465Z,58.00
2018-04-02T20:39:04.027Z,58.00
2018-04-02T20:41:31.583Z,58.60
2018-04-02T20:43:59.147Z,59.00
2018-04-02T20:46:26.685Z,59.10
2018-04-02T20:48:54.256Z,60.80
2018-04-02T20:51:22.044Z,61.50
2018-04-02T20:53:51.867Z,61.20
2018-04-02T20:56:19.506Z,61.20
2018-04-02T20:58:47.102Z,61.70
2018-04-02T21:01:14.731Z,61.90
2018-04-02T21:03:42.368Z,62.50
2018-04-02T21:06:09.994Z,61.00
2018-04-02T21:08:38.379Z,63.80
2018-04-02T21:11:06.744Z,65.30
2018-04-02T21:13:34.354Z,65.30
2018-04-02T21:16:02.016Z,64.70
2018-04-02T21:18:29.595Z,64.90
2018-04-02T21:20:57.206Z,64.00
2018-04-02T21:23:25.577Z,64.70
2018-04-02T21:25:53.979Z,64.20
2018-04-02T21:28:21.607Z,64.30
2018-04-02T21:30:49.274Z,64.30
2018-04-02T21:33:17.627Z,65.50
2018-04-02T21:35:45.251Z,65.50
2018-04-02T21:38:12.849Z,66.00
2018-04-02T21:40:40.480Z,66.30
2018-04-02T21:43:08.067Z,65.40
2018-04-02T21:45:35.856Z,66.00
2018-04-02T21:48:04.141Z,68.70
2018-04-02T21:50:32.544Z,70.40
2018-04-02T21:53:00.154Z,69.80
2018-04-02T21:55:27.781Z,70.50
2018-04-02T21:57:55.337Z,70.20
2018-04-02T22:00:22.873Z,68.80
2018-04-02T22:02:51.202Z,68.10
2018-04-02T22:05:18.748Z,68.00
2018-04-02T22:07:46.317Z,68.50
2018-04-02T22:10:14.490Z,69.00
2018-04-02T22:12:42.074Z,70.80
2018-04-02T22:15:09.631Z,71.50
2018-04-02T22:17:37.201Z,71.90
2018-04-02T22:20:04.740Z,72.20
2018-04-02T22:22:32.307Z,71.90
2018-04-02T22:24:59.843Z,71.20
2018-04-02T22:27:27.426Z,70.60
2018-04-02T22:29:54.975Z,70.30
2018-04-02T22:32:22.550Z,70.80
2018-04-02T22:34:50.114Z,71.60
2018-04-02T22:37:17.683Z,72.50
2018-04-02T22:39:45.230Z,73.60
2018-04-02T22:42:12.794Z,74.60
2018-04-02T22:44:40.327Z,74.90
2018-04-02T22:47:07.901Z,76.00
2018-04-02T22:49:36.213Z,76.80
2018-04-02T22:52:03.760Z,76.80
2018-04-02T22:54:31.328Z,77.90
2018-04-02T22:56:58.871Z,76.80
2018-04-02T22:59:26.446Z,77.10
2018-04-02T23:01:53.988Z,77.60
2018-04-02T23:04:21.563Z,78.10
2018-04-02T23:06:49.115Z,77.90
2018-04-02T23:09:16.682Z,77.90
2018-04-02T23:11:44.226Z,78.30
2018-04-02T23:14:11.811Z,78.50
2018-04-02T23:16:39.370Z,78.60
2018-04-02T23:19:06.991Z,79.60
2018-04-02T23:21:35.898Z,79.70
2018-04-02T23:24:03.513Z,79.80
2018-04-02T23:26:31.117Z,80.20
2018-04-02T23:28:58.748Z,80.00
2018-04-02T23:31:26.327Z,80.60
2018-04-02T23:33:53.946Z,81.10
2018-04-02T23:36:22.286Z,82.40
2018-04-02T23:38:49.872Z,82.40
2018-04-02T23:41:18.273Z,83.20
2018-04-02T23:43:45.843Z,83.20
2018-04-02T23:46:13.470Z,83.40
2018-04-02T23:48:41.058Z,83.60
2018-04-02T23:51:08.679Z,84.50
2018-04-02T23:53:36.258Z,83.90
2018-04-02T23:56:04.679Z,83.90
2018-04-02T23:58:32.282Z,83.70
